CYQY

Sydney / J.A. Douglas McCurdy Airport

Sydney, Nova Scotia, Canada
TAF CYQY 162340Z 1700/1712 VRB03KT 1/2SM FG VV001 TEMPO 1700/1711 1SM BR OVC002 FM171100 26007KT 3SM BR SCT002 RMK NXT FCST BY 170600Z
Issued Valid From Valid To
Jul-16 @ 23:40 UTC
(45 minutes ago)
Jul-17 @ 00:00 UTC
(25 minutes ago)
Jul-17 @ 12:00 UTC
(in 12 hours)
Jul-17 @ 00:00 to Jul-17 @ 11:00
TAF CYQY 162340Z 1700/1712 VRB03KT 1/2SM FG VV001
Wind Visibility Clouds Conditions
Variable at 3 knots 1/2 miles
  • Vertical visibility at 100' AGL
  • Fog
Temporary Jul-17 @ 00:00 to Jul-17 @ 11:00
TEMPO 1700/1711 1SM BR OVC002
Visibility Clouds Conditions
1 miles
  • Overcast at 200' AGL
  • Mist
From Jul-17 @ 11:00 to Jul-17 @ 12:00
FM171100 26007KT 3SM BR SCT002 RMK NXT FCST BY 170600Z
Wind Visibility Clouds Conditions
260° at 7 knots 3 miles
  • Scattered at 200' AGL
  • Mist
TAF CYQY 162340Z 1700/1712 VRB03KT 1/2SM FG VV001 TEMPO 1700/1711 1SM BR OVC002 FM171100 26007KT 3SM BR SCT002 RMK NXT FCST BY 170600Z
Issued Jul-16 @ 23:40 UTC
(45 minutes ago)
Valid From Jul-17 @ 00:00 UTC
(25 minutes ago)
Valid To Jul-17 @ 12:00 UTC
(in 12 hours)
Jul-17 @ 00:00 - Jul-17 @ 11:00
Wind Visibility
Variable at 3 knots 1/2 miles
Clouds
  • Vertical visibility at 100' AGL
Conditions
  • Fog
Temporary Jul-17 @ 00:00 - Jul-17 @ 11:00
Clouds
  • Overcast at 200' AGL
Conditions
  • Mist
From Jul-17 @ 11:00 - Jul-17 @ 12:00
Wind Visibility
260° at 7 knots 3 miles
Clouds
  • Scattered at 200' AGL
Conditions
  • Mist